sensor_id;sensor_type;location;lat;lon;timestamp;P1;durP1;ratioP1;P2;durP2;ratioP2
75971;SDS011;64651;47.540;19.088;2023-05-13T00:01:26;12.70;;;6.87;;
75971;SDS011;64651;47.540;19.088;2023-05-13T00:06:28;12.23;;;6.62;;
75971;SDS011;64651;47.540;19.088;2023-05-13T00:11:31;13.30;;;6.60;;
75971;SDS011;64651;47.540;19.088;2023-05-13T00:16:33;13.93;;;6.82;;
75971;SDS011;64651;47.540;19.088;2023-05-13T00:21:35;12.23;;;6.67;;
75971;SDS011;64651;47.540;19.088;2023-05-13T00:26:37;13.23;;;7.68;;
75971;SDS011;64651;47.540;19.088;2023-05-13T00:31:40;13.32;;;7.70;;
75971;SDS011;64651;47.540;19.088;2023-05-13T00:36:42;12.32;;;6.65;;
75971;SDS011;64651;47.540;19.088;2023-05-13T00:41:45;13.62;;;7.10;;
75971;SDS011;64651;47.540;19.088;2023-05-13T00:46:48;13.30;;;7.27;;
75971;SDS011;64651;47.540;19.088;2023-05-13T00:51:50;12.52;;;7.15;;
75971;SDS011;64651;47.540;19.088;2023-05-13T00:56:55;13.52;;;6.97;;
75971;SDS011;64651;47.540;19.088;2023-05-13T01:12:39;13.57;;;7.23;;
75971;SDS011;64651;47.540;19.088;2023-05-13T01:17:50;12.52;;;7.00;;
75971;SDS011;64651;47.540;19.088;2023-05-13T01:23:01;13.45;;;7.43;;
75971;SDS011;64651;47.540;19.088;2023-05-13T01:28:05;12.70;;;6.90;;
75971;SDS011;64651;47.540;19.088;2023-05-13T01:33:08;14.10;;;6.90;;
75971;SDS011;64651;47.540;19.088;2023-05-13T01:38:13;12.73;;;7.17;;
75971;SDS011;64651;47.540;19.088;2023-05-13T01:43:15;13.27;;;7.37;;
75971;SDS011;64651;47.540;19.088;2023-05-13T01:48:19;13.88;;;7.28;;
75971;SDS011;64651;47.540;19.088;2023-05-13T01:53:21;12.25;;;6.82;;
75971;SDS011;64651;47.540;19.088;2023-05-13T01:58:23;13.88;;;7.40;;
75971;SDS011;64651;47.540;19.088;2023-05-13T02:03:25;12.40;;;6.67;;
75971;SDS011;64651;47.540;19.088;2023-05-13T02:08:27;13.65;;;7.00;;
75971;SDS011;64651;47.540;19.088;2023-05-13T02:13:30;13.65;;;7.47;;
75971;SDS011;64651;47.540;19.088;2023-05-13T02:18:32;13.98;;;7.35;;
75971;SDS011;64651;47.540;19.088;2023-05-13T02:23:34;14.15;;;6.97;;
75971;SDS011;64651;47.540;19.088;2023-05-13T02:28:36;12.67;;;7.40;;
75971;SDS011;64651;47.540;19.088;2023-05-13T02:33:38;13.45;;;7.07;;
75971;SDS011;64651;47.540;19.088;2023-05-13T02:38:41;12.63;;;7.00;;
75971;SDS011;64651;47.540;19.088;2023-05-13T02:43:43;12.23;;;6.82;;
75971;SDS011;64651;47.540;19.088;2023-05-13T02:48:45;12.77;;;6.97;;
75971;SDS011;64651;47.540;19.088;2023-05-13T02:53:47;12.50;;;6.77;;
75971;SDS011;64651;47.540;19.088;2023-05-13T02:58:49;12.37;;;6.82;;
75971;SDS011;64651;47.540;19.088;2023-05-13T03:03:51;12.60;;;6.57;;
75971;SDS011;64651;47.540;19.088;2023-05-13T03:08:54;13.23;;;6.95;;
75971;SDS011;64651;47.540;19.088;2023-05-13T03:13:56;12.50;;;6.75;;
75971;SDS011;64651;47.540;19.088;2023-05-13T03:18:58;12.60;;;6.90;;
75971;SDS011;64651;47.540;19.088;2023-05-13T03:24:00;12.98;;;6.47;;
75971;SDS011;64651;47.540;19.088;2023-05-13T03:29:03;13.70;;;6.22;;
75971;SDS011;64651;47.540;19.088;2023-05-13T03:34:05;12.82;;;6.40;;
75971;SDS011;64651;47.540;19.088;2023-05-13T03:39:07;11.70;;;6.28;;
75971;SDS011;64651;47.540;19.088;2023-05-13T03:44:09;12.70;;;6.50;;
75971;SDS011;64651;47.540;19.088;2023-05-13T03:49:11;14.60;;;6.85;;
75971;SDS011;64651;47.540;19.088;2023-05-13T03:54:13;12.95;;;7.03;;
75971;SDS011;64651;47.540;19.088;2023-05-13T03:59:16;13.35;;;7.10;;
75971;SDS011;64651;47.540;19.088;2023-05-13T04:04:18;14.48;;;7.53;;
75971;SDS011;64651;47.540;19.088;2023-05-13T04:09:20;13.87;;;7.20;;
75971;SDS011;64651;47.540;19.088;2023-05-13T04:14:22;13.07;;;6.97;;
75971;SDS011;64651;47.540;19.088;2023-05-13T04:19:24;15.60;;;8.25;;
75971;SDS011;64651;47.540;19.088;2023-05-13T04:24:26;21.23;;;9.93;;
75971;SDS011;64651;47.540;19.088;2023-05-13T04:29:28;18.73;;;8.60;;
75971;SDS011;64651;47.540;19.088;2023-05-13T04:34:31;15.23;;;8.10;;
75971;SDS011;64651;47.540;19.088;2023-05-13T04:39:33;15.93;;;8.27;;
75971;SDS011;64651;47.540;19.088;2023-05-13T04:44:35;16.73;;;8.00;;
75971;SDS011;64651;47.540;19.088;2023-05-13T04:49:37;17.73;;;9.00;;
75971;SDS011;64651;47.540;19.088;2023-05-13T04:54:40;20.95;;;9.40;;
75971;SDS011;64651;47.540;19.088;2023-05-13T04:59:43;30.73;;;11.10;;
75971;SDS011;64651;47.540;19.088;2023-05-13T05:04:45;34.03;;;11.88;;
75971;SDS011;64651;47.540;19.088;2023-05-13T05:09:47;27.77;;;10.27;;
75971;SDS011;64651;47.540;19.088;2023-05-13T05:14:50;19.85;;;8.77;;
75971;SDS011;64651;47.540;19.088;2023-05-13T05:19:52;24.83;;;10.20;;
75971;SDS011;64651;47.540;19.088;2023-05-13T05:24:54;17.30;;;8.57;;
75971;SDS011;64651;47.540;19.088;2023-05-13T05:29:56;12.20;;;6.53;;
75971;SDS011;64651;47.540;19.088;2023-05-13T05:34:58;14.90;;;6.15;;
75971;SDS011;64651;47.540;19.088;2023-05-13T05:40:03;12.02;;;5.90;;
75971;SDS011;64651;47.540;19.088;2023-05-13T05:45:05;13.50;;;6.68;;
75971;SDS011;64651;47.540;19.088;2023-05-13T05:50:08;13.63;;;6.17;;
75971;SDS011;64651;47.540;19.088;2023-05-13T05:55:11;12.23;;;6.60;;
75971;SDS011;64651;47.540;19.088;2023-05-13T06:00:13;16.08;;;8.30;;
75971;SDS011;64651;47.540;19.088;2023-05-13T06:05:15;15.30;;;7.90;;
75971;SDS011;64651;47.540;19.088;2023-05-13T06:10:17;13.65;;;6.87;;
75971;SDS011;64651;47.540;19.088;2023-05-13T06:15:20;13.33;;;6.90;;
75971;SDS011;64651;47.540;19.088;2023-05-13T06:20:22;12.25;;;6.57;;
75971;SDS011;64651;47.540;19.088;2023-05-13T06:25:25;13.57;;;6.30;;
75971;SDS011;64651;47.540;19.088;2023-05-13T06:30:27;12.93;;;6.63;;
75971;SDS011;64651;47.540;19.088;2023-05-13T06:35:29;11.00;;;6.22;;
75971;SDS011;64651;47.540;19.088;2023-05-13T06:40:32;11.60;;;6.07;;
75971;SDS011;64651;47.540;19.088;2023-05-13T06:45:34;11.80;;;6.60;;
75971;SDS011;64651;47.540;19.088;2023-05-13T06:50:36;12.07;;;7.07;;
75971;SDS011;64651;47.540;19.088;2023-05-13T06:55:38;14.93;;;7.68;;
75971;SDS011;64651;47.540;19.088;2023-05-13T07:00:42;11.98;;;6.57;;
75971;SDS011;64651;47.540;19.088;2023-05-13T07:05:47;11.20;;;6.60;;
75971;SDS011;64651;47.540;19.088;2023-05-13T07:10:49;12.05;;;6.80;;
75971;SDS011;64651;47.540;19.088;2023-05-13T07:15:51;13.68;;;7.60;;
75971;SDS011;64651;47.540;19.088;2023-05-13T07:20:54;13.35;;;8.40;;
75971;SDS011;64651;47.540;19.088;2023-05-13T07:25:59;13.88;;;7.50;;
75971;SDS011;64651;47.540;19.088;2023-05-13T07:31:04;12.43;;;6.80;;
75971;SDS011;64651;47.540;19.088;2023-05-13T07:36:07;11.90;;;7.25;;
75971;SDS011;64651;47.540;19.088;2023-05-13T07:41:10;12.43;;;6.90;;
75971;SDS011;64651;47.540;19.088;2023-05-13T07:46:12;11.90;;;6.18;;
75971;SDS011;64651;47.540;19.088;2023-05-13T07:51:14;17.52;;;10.27;;
75971;SDS011;64651;47.540;19.088;2023-05-13T07:56:19;11.43;;;7.20;;
75971;SDS011;64651;47.540;19.088;2023-05-13T08:01:21;12.60;;;6.62;;
75971;SDS011;64651;47.540;19.088;2023-05-13T08:06:23;11.60;;;6.40;;
75971;SDS011;64651;47.540;19.088;2023-05-13T08:11:25;12.32;;;7.10;;
75971;SDS011;64651;47.540;19.088;2023-05-13T08:16:28;11.25;;;6.20;;
75971;SDS011;64651;47.540;19.088;2023-05-13T08:21:30;13.40;;;7.43;;
75971;SDS011;64651;47.540;19.088;2023-05-13T08:26:33;11.00;;;6.53;;
75971;SDS011;64651;47.540;19.088;2023-05-13T08:31:35;12.32;;;7.00;;
75971;SDS011;64651;47.540;19.088;2023-05-13T08:36:37;12.63;;;6.87;;
75971;SDS011;64651;47.540;19.088;2023-05-13T08:41:40;12.35;;;6.68;;
75971;SDS011;64651;47.540;19.088;2023-05-13T08:46:46;12.53;;;6.80;;
75971;SDS011;64651;47.540;19.088;2023-05-13T08:51:54;13.05;;;6.90;;
75971;SDS011;64651;47.540;19.088;2023-05-13T08:56:56;12.40;;;6.65;;
75971;SDS011;64651;47.540;19.088;2023-05-13T09:01:58;12.32;;;6.93;;
75971;SDS011;64651;47.540;19.088;2023-05-13T09:07:04;12.80;;;6.80;;
75971;SDS011;64651;47.540;19.088;2023-05-13T09:12:07;13.83;;;6.77;;
75971;SDS011;64651;47.540;19.088;2023-05-13T09:17:09;11.98;;;7.10;;
75971;SDS011;64651;47.540;19.088;2023-05-13T09:22:15;13.52;;;6.57;;
75971;SDS011;64651;47.540;19.088;2023-05-13T09:27:22;14.17;;;7.33;;
75971;SDS011;64651;47.540;19.088;2023-05-13T09:32:38;12.60;;;6.93;;
75971;SDS011;64651;47.540;19.088;2023-05-13T09:37:44;11.70;;;6.83;;
75971;SDS011;64651;47.540;19.088;2023-05-13T09:42:47;12.18;;;6.10;;
75971;SDS011;64651;47.540;19.088;2023-05-13T09:47:50;11.50;;;6.47;;
75971;SDS011;64651;47.540;19.088;2023-05-13T09:52:54;12.20;;;6.10;;
75971;SDS011;64651;47.540;19.088;2023-05-13T09:57:56;10.38;;;6.15;;
75971;SDS011;64651;47.540;19.088;2023-05-13T10:02:58;12.03;;;6.50;;
75971;SDS011;64651;47.540;19.088;2023-05-13T10:08:03;11.45;;;6.53;;
75971;SDS011;64651;47.540;19.088;2023-05-13T10:13:09;9.77;;;5.97;;
75971;SDS011;64651;47.540;19.088;2023-05-13T10:18:14;9.63;;;5.63;;
75971;SDS011;64651;47.540;19.088;2023-05-13T10:23:21;9.68;;;5.70;;
75971;SDS011;64651;47.540;19.088;2023-05-13T10:28:25;9.37;;;6.27;;
75971;SDS011;64651;47.540;19.088;2023-05-13T10:33:28;10.07;;;5.95;;
75971;SDS011;64651;47.540;19.088;2023-05-13T10:43:59;9.87;;;6.10;;
75971;SDS011;64651;47.540;19.088;2023-05-13T10:49:01;10.73;;;6.60;;
75971;SDS011;64651;47.540;19.088;2023-05-13T10:54:03;10.47;;;6.40;;
75971;SDS011;64651;47.540;19.088;2023-05-13T10:59:23;12.98;;;7.03;;
75971;SDS011;64651;47.540;19.088;2023-05-13T11:04:25;10.90;;;6.53;;
75971;SDS011;64651;47.540;19.088;2023-05-13T11:09:28;10.90;;;6.33;;
75971;SDS011;64651;47.540;19.088;2023-05-13T11:14:31;10.20;;;6.60;;
75971;SDS011;64651;47.540;19.088;2023-05-13T11:19:34;10.80;;;6.93;;
75971;SDS011;64651;47.540;19.088;2023-05-13T11:25:06;11.10;;;6.55;;
75971;SDS011;64651;47.540;19.088;2023-05-13T11:30:21;11.73;;;6.57;;
75971;SDS011;64651;47.540;19.088;2023-05-13T11:35:26;17.03;;;7.80;;
75971;SDS011;64651;47.540;19.088;2023-05-13T11:40:33;14.00;;;7.70;;
75971;SDS011;64651;47.540;19.088;2023-05-13T11:45:37;11.70;;;7.00;;
75971;SDS011;64651;47.540;19.088;2023-05-13T11:50:40;12.55;;;7.20;;
75971;SDS011;64651;47.540;19.088;2023-05-13T11:55:42;13.38;;;7.50;;
75971;SDS011;64651;47.540;19.088;2023-05-13T12:00:44;12.68;;;7.80;;
75971;SDS011;64651;47.540;19.088;2023-05-13T12:05:47;14.13;;;7.28;;
75971;SDS011;64651;47.540;19.088;2023-05-13T12:10:49;12.70;;;6.83;;
75971;SDS011;64651;47.540;19.088;2023-05-13T12:15:52;12.02;;;6.70;;
75971;SDS011;64651;47.540;19.088;2023-05-13T12:20:55;10.70;;;6.40;;
75971;SDS011;64651;47.540;19.088;2023-05-13T12:25:57;11.50;;;6.47;;
75971;SDS011;64651;47.540;19.088;2023-05-13T12:31:03;11.75;;;6.05;;
75971;SDS011;64651;47.540;19.088;2023-05-13T12:36:23;11.30;;;6.10;;
75971;SDS011;64651;47.540;19.088;2023-05-13T12:41:40;14.00;;;6.47;;
75971;SDS011;64651;47.540;19.088;2023-05-13T12:46:53;11.95;;;5.97;;
75971;SDS011;64651;47.540;19.088;2023-05-13T12:51:56;13.07;;;6.53;;
75971;SDS011;64651;47.540;19.088;2023-05-13T12:56:58;12.57;;;5.68;;
75971;SDS011;64651;47.540;19.088;2023-05-13T13:02:00;11.57;;;6.43;;
75971;SDS011;64651;47.540;19.088;2023-05-13T13:07:02;11.82;;;6.60;;
75971;SDS011;64651;47.540;19.088;2023-05-13T13:12:07;16.05;;;8.55;;
75971;SDS011;64651;47.540;19.088;2023-05-13T13:17:09;10.43;;;6.30;;
75971;SDS011;64651;47.540;19.088;2023-05-13T13:22:11;12.55;;;6.70;;
75971;SDS011;64651;47.540;19.088;2023-05-13T13:27:13;11.83;;;6.13;;
75971;SDS011;64651;47.540;19.088;2023-05-13T13:32:15;11.23;;;5.95;;
75971;SDS011;64651;47.540;19.088;2023-05-13T13:37:18;11.02;;;5.82;;
75971;SDS011;64651;47.540;19.088;2023-05-13T13:42:20;12.47;;;5.87;;
75971;SDS011;64651;47.540;19.088;2023-05-13T13:47:31;14.57;;;7.97;;
75971;SDS011;64651;47.540;19.088;2023-05-13T13:52:34;12.60;;;6.80;;
75971;SDS011;64651;47.540;19.088;2023-05-13T13:57:36;14.45;;;8.65;;
75971;SDS011;64651;47.540;19.088;2023-05-13T14:02:39;13.95;;;6.87;;
75971;SDS011;64651;47.540;19.088;2023-05-13T14:07:44;11.80;;;6.30;;
75971;SDS011;64651;47.540;19.088;2023-05-13T14:12:47;16.42;;;7.72;;
75971;SDS011;64651;47.540;19.088;2023-05-13T14:17:49;13.03;;;7.37;;
75971;SDS011;64651;47.540;19.088;2023-05-13T14:22:51;14.13;;;7.25;;
75971;SDS011;64651;47.540;19.088;2023-05-13T14:27:53;11.32;;;6.25;;
75971;SDS011;64651;47.540;19.088;2023-05-13T14:32:55;11.57;;;5.13;;
75971;SDS011;64651;47.540;19.088;2023-05-13T14:37:58;10.20;;;5.53;;
75971;SDS011;64651;47.540;19.088;2023-05-13T14:43:00;10.70;;;5.73;;
75971;SDS011;64651;47.540;19.088;2023-05-13T14:48:02;9.27;;;5.35;;
75971;SDS011;64651;47.540;19.088;2023-05-13T14:53:04;10.48;;;5.57;;
75971;SDS011;64651;47.540;19.088;2023-05-13T14:58:07;8.80;;;4.97;;
75971;SDS011;64651;47.540;19.088;2023-05-13T15:03:10;10.77;;;5.25;;
75971;SDS011;64651;47.540;19.088;2023-05-13T15:08:12;11.43;;;6.03;;
75971;SDS011;64651;47.540;19.088;2023-05-13T15:13:15;11.68;;;5.65;;
75971;SDS011;64651;47.540;19.088;2023-05-13T15:18:17;10.75;;;5.97;;
75971;SDS011;64651;47.540;19.088;2023-05-13T15:23:19;10.05;;;6.00;;
75971;SDS011;64651;47.540;19.088;2023-05-13T15:28:21;11.27;;;5.95;;
75971;SDS011;64651;47.540;19.088;2023-05-13T15:33:24;10.93;;;6.30;;
75971;SDS011;64651;47.540;19.088;2023-05-13T15:38:27;10.23;;;5.95;;
75971;SDS011;64651;47.540;19.088;2023-05-13T15:43:29;12.57;;;5.80;;
75971;SDS011;64651;47.540;19.088;2023-05-13T15:48:32;10.77;;;6.40;;
75971;SDS011;64651;47.540;19.088;2023-05-13T15:53:34;11.68;;;6.20;;
75971;SDS011;64651;47.540;19.088;2023-05-13T15:58:36;11.87;;;5.77;;
75971;SDS011;64651;47.540;19.088;2023-05-13T16:03:39;13.57;;;6.75;;
75971;SDS011;64651;47.540;19.088;2023-05-13T16:08:41;12.18;;;6.40;;
75971;SDS011;64651;47.540;19.088;2023-05-13T16:13:43;11.70;;;6.10;;
75971;SDS011;64651;47.540;19.088;2023-05-13T16:18:46;11.35;;;5.43;;
75971;SDS011;64651;47.540;19.088;2023-05-13T16:23:48;12.70;;;6.40;;
75971;SDS011;64651;47.540;19.088;2023-05-13T16:28:51;11.70;;;6.20;;
75971;SDS011;64651;47.540;19.088;2023-05-13T16:33:54;11.07;;;5.97;;
75971;SDS011;64651;47.540;19.088;2023-05-13T16:38:56;12.23;;;6.22;;
75971;SDS011;64651;47.540;19.088;2023-05-13T16:43:58;14.00;;;6.68;;
75971;SDS011;64651;47.540;19.088;2023-05-13T16:49:01;12.57;;;6.93;;
75971;SDS011;64651;47.540;19.088;2023-05-13T16:54:03;12.50;;;5.97;;
75971;SDS011;64651;47.540;19.088;2023-05-13T16:59:07;11.50;;;6.20;;
75971;SDS011;64651;47.540;19.088;2023-05-13T17:04:09;12.43;;;6.10;;
75971;SDS011;64651;47.540;19.088;2023-05-13T17:09:12;11.18;;;5.90;;
75971;SDS011;64651;47.540;19.088;2023-05-13T17:14:14;13.53;;;5.33;;
75971;SDS011;64651;47.540;19.088;2023-05-13T17:19:16;12.48;;;6.28;;
75971;SDS011;64651;47.540;19.088;2023-05-13T17:24:19;10.30;;;5.83;;
75971;SDS011;64651;47.540;19.088;2023-05-13T17:29:23;9.73;;;5.65;;
75971;SDS011;64651;47.540;19.088;2023-05-13T17:34:26;11.27;;;6.12;;
75971;SDS011;64651;47.540;19.088;2023-05-13T17:39:28;16.90;;;10.23;;
75971;SDS011;64651;47.540;19.088;2023-05-13T17:44:31;12.98;;;6.70;;
75971;SDS011;64651;47.540;19.088;2023-05-13T17:49:33;11.47;;;5.70;;
75971;SDS011;64651;47.540;19.088;2023-05-13T17:54:36;13.57;;;5.55;;
75971;SDS011;64651;47.540;19.088;2023-05-13T17:59:38;13.18;;;6.47;;
75971;SDS011;64651;47.540;19.088;2023-05-13T18:04:40;11.83;;;6.10;;
75971;SDS011;64651;47.540;19.088;2023-05-13T18:09:43;11.57;;;6.43;;
75971;SDS011;64651;47.540;19.088;2023-05-13T18:14:45;10.87;;;5.73;;
75971;SDS011;64651;47.540;19.088;2023-05-13T18:19:47;11.45;;;6.47;;
75971;SDS011;64651;47.540;19.088;2023-05-13T18:24:49;13.30;;;7.68;;
75971;SDS011;64651;47.540;19.088;2023-05-13T18:29:51;16.13;;;9.33;;
75971;SDS011;64651;47.540;19.088;2023-05-13T18:34:54;13.35;;;7.95;;
75971;SDS011;64651;47.540;19.088;2023-05-13T18:39:56;14.03;;;7.83;;
75971;SDS011;64651;47.540;19.088;2023-05-13T18:44:59;13.13;;;6.95;;
75971;SDS011;64651;47.540;19.088;2023-05-13T18:50:02;11.70;;;6.68;;
75971;SDS011;64651;47.540;19.088;2023-05-13T18:55:05;12.63;;;7.30;;
75971;SDS011;64651;47.540;19.088;2023-05-13T19:00:08;12.30;;;7.03;;
75971;SDS011;64651;47.540;19.088;2023-05-13T19:05:11;13.87;;;7.17;;
75971;SDS011;64651;47.540;19.088;2023-05-13T19:10:13;11.80;;;6.87;;
75971;SDS011;64651;47.540;19.088;2023-05-13T19:15:16;12.35;;;6.70;;
75971;SDS011;64651;47.540;19.088;2023-05-13T19:20:22;13.63;;;7.07;;
75971;SDS011;64651;47.540;19.088;2023-05-13T19:25:26;11.40;;;7.00;;
75971;SDS011;64651;47.540;19.088;2023-05-13T19:30:28;12.87;;;7.80;;
75971;SDS011;64651;47.540;19.088;2023-05-13T19:35:31;12.68;;;7.65;;
75971;SDS011;64651;47.540;19.088;2023-05-13T19:40:34;13.18;;;7.93;;
75971;SDS011;64651;47.540;19.088;2023-05-13T19:45:36;12.73;;;7.20;;
75971;SDS011;64651;47.540;19.088;2023-05-13T19:50:38;12.48;;;7.68;;
75971;SDS011;64651;47.540;19.088;2023-05-13T19:55:42;13.53;;;8.10;;
75971;SDS011;64651;47.540;19.088;2023-05-13T20:00:44;13.00;;;7.28;;
75971;SDS011;64651;47.540;19.088;2023-05-13T20:05:47;11.60;;;6.47;;
75971;SDS011;64651;47.540;19.088;2023-05-13T20:10:49;12.97;;;7.13;;
75971;SDS011;64651;47.540;19.088;2023-05-13T20:15:52;12.55;;;7.40;;
75971;SDS011;64651;47.540;19.088;2023-05-13T20:20:54;13.37;;;7.63;;
75971;SDS011;64651;47.540;19.088;2023-05-13T20:25:56;13.75;;;6.95;;
75971;SDS011;64651;47.540;19.088;2023-05-13T20:31:02;12.52;;;7.03;;
75971;SDS011;64651;47.540;19.088;2023-05-13T20:36:04;12.83;;;6.57;;
75971;SDS011;64651;47.540;19.088;2023-05-13T20:41:07;12.20;;;7.18;;
75971;SDS011;64651;47.540;19.088;2023-05-13T20:46:10;11.97;;;7.10;;
75971;SDS011;64651;47.540;19.088;2023-05-13T20:51:18;13.82;;;7.45;;
75971;SDS011;64651;47.540;19.088;2023-05-13T20:56:20;14.75;;;7.28;;
75971;SDS011;64651;47.540;19.088;2023-05-13T21:01:22;14.53;;;7.77;;
75971;SDS011;64651;47.540;19.088;2023-05-13T21:06:26;13.40;;;7.80;;
75971;SDS011;64651;47.540;19.088;2023-05-13T21:11:28;13.23;;;7.77;;
75971;SDS011;64651;47.540;19.088;2023-05-13T21:16:30;15.10;;;8.40;;
75971;SDS011;64651;47.540;19.088;2023-05-13T21:21:32;13.57;;;7.30;;
75971;SDS011;64651;47.540;19.088;2023-05-13T21:26:34;15.10;;;7.70;;
75971;SDS011;64651;47.540;19.088;2023-05-13T21:31:37;17.80;;;10.27;;
75971;SDS011;64651;47.540;19.088;2023-05-13T21:36:39;14.77;;;8.70;;
75971;SDS011;64651;47.540;19.088;2023-05-13T21:41:41;14.60;;;8.23;;
75971;SDS011;64651;47.540;19.088;2023-05-13T21:46:44;13.77;;;7.95;;
75971;SDS011;64651;47.540;19.088;2023-05-13T21:51:47;12.57;;;7.73;;
75971;SDS011;64651;47.540;19.088;2023-05-13T21:56:49;12.75;;;7.87;;
75971;SDS011;64651;47.540;19.088;2023-05-13T22:01:51;14.03;;;7.73;;
75971;SDS011;64651;47.540;19.088;2023-05-13T22:06:53;13.32;;;8.07;;
75971;SDS011;64651;47.540;19.088;2023-05-13T22:11:56;15.05;;;8.95;;
75971;SDS011;64651;47.540;19.088;2023-05-13T22:16:58;15.77;;;9.50;;
75971;SDS011;64651;47.540;19.088;2023-05-13T22:22:10;17.33;;;10.30;;
75971;SDS011;64651;47.540;19.088;2023-05-13T22:27:12;14.97;;;8.97;;
75971;SDS011;64651;47.540;19.088;2023-05-13T22:32:15;17.30;;;9.20;;
75971;SDS011;64651;47.540;19.088;2023-05-13T22:37:17;14.93;;;8.50;;
75971;SDS011;64651;47.540;19.088;2023-05-13T22:42:19;14.43;;;8.37;;
75971;SDS011;64651;47.540;19.088;2023-05-13T22:47:22;15.60;;;9.27;;
75971;SDS011;64651;47.540;19.088;2023-05-13T22:52:25;15.37;;;8.70;;
75971;SDS011;64651;47.540;19.088;2023-05-13T22:57:27;16.83;;;8.70;;
75971;SDS011;64651;47.540;19.088;2023-05-13T23:02:29;17.12;;;9.13;;
75971;SDS011;64651;47.540;19.088;2023-05-13T23:07:31;16.13;;;8.43;;
75971;SDS011;64651;47.540;19.088;2023-05-13T23:12:34;14.23;;;8.68;;
75971;SDS011;64651;47.540;19.088;2023-05-13T23:17:36;16.00;;;8.30;;
75971;SDS011;64651;47.540;19.088;2023-05-13T23:22:38;13.98;;;7.93;;
75971;SDS011;64651;47.540;19.088;2023-05-13T23:27:40;15.48;;;8.68;;
75971;SDS011;64651;47.540;19.088;2023-05-13T23:32:43;14.33;;;8.13;;
75971;SDS011;64651;47.540;19.088;2023-05-13T23:37:45;14.77;;;8.35;;
75971;SDS011;64651;47.540;19.088;2023-05-13T23:42:47;13.63;;;8.17;;
75971;SDS011;64651;47.540;19.088;2023-05-13T23:47:49;15.57;;;8.48;;
75971;SDS011;64651;47.540;19.088;2023-05-13T23:52:51;13.57;;;8.27;;
75971;SDS011;64651;47.540;19.088;2023-05-13T23:57:54;13.63;;;8.00;;
